This is the latest recevied weather packets stored in our database for station/object N5YHF. If no packets are shown the sender has not sent any weather packets the latest 10 day(s).
| Time | Temp. | Humidity | Pressure | Rain* | Wind** | Luminosity | Snow |
|---|---|---|---|---|---|---|---|
| 1777926330 | 27.78° C | 53% | 1010.2 hPa | 0 mm | - | - | - |
| 1777922749 | 27.22° C | 55% | 1011.2 hPa | 0 mm | - | - | - |
| 1777915528 | 24.44° C | 62% | 1013.2 hPa | 0 mm | - | - | - |
| 1777911930 | 23.89° C | 64% | 1013.5 hPa | 0 mm | - | - | - |
| 1777910120 | 22.78° C | 66% | 1014.1 hPa | 0 mm | - | - | - |
| 1777908921 | 22.22° C | 68% | 1013.8 hPa | 0 mm | - | - | - |
| 1777902938 | 18.89° C | 73% | 1013.9 hPa | 0 mm | - | - | - |
| 1777900520 | 17.78° C | 75% | 1014.1 hPa | 0 mm | - | - | - |
| 1777899341 | 17.22° C | 77% | 1014 hPa | 0 mm | - | - | - |
| 1777898731 | 16.67° C | 77% | 1013.8 hPa | 0 mm | - | - | - |
| 1777895717 | 16.67° C | 77% | 1013.2 hPa | 0 mm | - | - | - |
| 1777888532 | 17.22° C | 73% | 1014.1 hPa | 0 mm | - | - | - |
| 1777887333 | 17.22° C | 73% | 1014.1 hPa | 0 mm | - | - | - |
| 1777886131 | 17.22° C | 72% | 1013.9 hPa | 0 mm | - | - | - |
| 1777881920 | 17.78° C | 70% | 1014.5 hPa | 0 mm | - | - | - |
| 1777880739 | 18.33° C | 68% | 1014.7 hPa | 0 mm | - | - | - |
| 1777878948 | 18.33° C | 67% | 1015 hPa | 0 mm | - | - | - |
| 1777871133 | 19.44° C | 59% | 1016.4 hPa | 0 mm | - | - | - |
| 1777868130 | 20° C | 54% | 1016.6 hPa | 0 mm | - | - | - |
| 1777866933 | 20.56° C | 51% | 1016.9 hPa | 0 mm | - | - | - |
| 1777864827 | 21.67° C | 44% | 1016.6 hPa | 0 mm | - | - | - |
| 1777863625 | 22.22° C | 43% | 1016.5 hPa | 0 mm | - | - | - |
| 1777860036 | 22.78° C | 41% | 1016.5 hPa | 0 mm | - | - | - |
| 1777858829 | 22.78° C | 39% | 1015.9 hPa | 0 mm | - | - | - |
| 1777853440 | 24.44° C | 35% | 1016.2 hPa | 0 mm | - | - | - |
* Rain latest hour (hover to see other rain measurements)
** Current wind speed in m/s (hover to see current wind gust speed)